sensor_id;sensor_type;location;lat;lon;timestamp;temperature;humidity
2729;DHT22;1372;47.956;7.830;2024-02-28T00:01:48;8.20;99.90
2729;DHT22;1372;47.956;7.830;2024-02-28T00:04:19;8.30;99.90
2729;DHT22;1372;47.956;7.830;2024-02-28T00:06:48;8.20;99.90
2729;DHT22;1372;47.956;7.830;2024-02-28T00:09:17;8.20;99.90
2729;DHT22;1372;47.956;7.830;2024-02-28T00:11:48;8.20;99.90
2729;DHT22;1372;47.956;7.830;2024-02-28T00:14:17;8.20;99.90
2729;DHT22;1372;47.956;7.830;2024-02-28T00:16:47;8.30;99.90
2729;DHT22;1372;47.956;7.830;2024-02-28T00:19:18;8.20;99.90
2729;DHT22;1372;47.956;7.830;2024-02-28T00:21:47;8.20;99.90
2729;DHT22;1372;47.956;7.830;2024-02-28T00:24:18;8.20;99.90
2729;DHT22;1372;47.956;7.830;2024-02-28T00:26:48;8.20;99.90
2729;DHT22;1372;47.956;7.830;2024-02-28T00:29:17;8.20;99.90
2729;DHT22;1372;47.956;7.830;2024-02-28T00:31:46;8.20;99.90
2729;DHT22;1372;47.956;7.830;2024-02-28T00:34:15;8.20;99.90
2729;DHT22;1372;47.956;7.830;2024-02-28T00:36:44;8.20;99.90
2729;DHT22;1372;47.956;7.830;2024-02-28T00:39:18;8.30;99.90
2729;DHT22;1372;47.956;7.830;2024-02-28T00:41:48;8.40;99.90
2729;DHT22;1372;47.956;7.830;2024-02-28T00:44:17;8.30;99.90
2729;DHT22;1372;47.956;7.830;2024-02-28T00:46:46;8.20;99.90
2729;DHT22;1372;47.956;7.830;2024-02-28T00:49:15;8.20;99.90
2729;DHT22;1372;47.956;7.830;2024-02-28T00:51:46;8.10;99.90
2729;DHT22;1372;47.956;7.830;2024-02-28T00:54:14;8.10;99.90
2729;DHT22;1372;47.956;7.830;2024-02-28T00:56:43;7.90;99.90
2729;DHT22;1372;47.956;7.830;2024-02-28T00:59:16;7.90;99.90
2729;DHT22;1372;47.956;7.830;2024-02-28T01:01:45;7.80;99.90
2729;DHT22;1372;47.956;7.830;2024-02-28T01:04:14;7.90;99.90
2729;DHT22;1372;47.956;7.830;2024-02-28T01:06:44;7.80;99.90
2729;DHT22;1372;47.956;7.830;2024-02-28T01:09:13;7.70;99.90
2729;DHT22;1372;47.956;7.830;2024-02-28T01:11:43;7.60;99.90
2729;DHT22;1372;47.956;7.830;2024-02-28T01:14:11;7.70;99.90
2729;DHT22;1372;47.956;7.830;2024-02-28T01:16:44;7.80;99.90
2729;DHT22;1372;47.956;7.830;2024-02-28T01:19:15;7.90;99.90
2729;DHT22;1372;47.956;7.830;2024-02-28T01:21:44;7.90;99.90
2729;DHT22;1372;47.956;7.830;2024-02-28T01:24:13;8.00;99.90
2729;DHT22;1372;47.956;7.830;2024-02-28T01:26:42;8.00;99.90
2729;DHT22;1372;47.956;7.830;2024-02-28T01:29:11;7.90;99.90
2729;DHT22;1372;47.956;7.830;2024-02-28T01:31:40;8.00;99.90
2729;DHT22;1372;47.956;7.830;2024-02-28T01:34:10;8.00;99.90
2729;DHT22;1372;47.956;7.830;2024-02-28T01:36:39;8.00;99.90
2729;DHT22;1372;47.956;7.830;2024-02-28T01:39:08;7.90;99.90
2729;DHT22;1372;47.956;7.830;2024-02-28T01:41:39;7.90;99.90
2729;DHT22;1372;47.956;7.830;2024-02-28T01:44:13;8.00;99.90
2729;DHT22;1372;47.956;7.830;2024-02-28T01:46:42;7.90;99.90
2729;DHT22;1372;47.956;7.830;2024-02-28T01:49:13;7.90;99.90
2729;DHT22;1372;47.956;7.830;2024-02-28T01:51:44;8.00;99.90
2729;DHT22;1372;47.956;7.830;2024-02-28T01:54:17;7.90;99.90
2729;DHT22;1372;47.956;7.830;2024-02-28T01:56:47;7.90;99.90
2729;DHT22;1372;47.956;7.830;2024-02-28T01:59:17;7.80;99.90
2729;DHT22;1372;47.956;7.830;2024-02-28T02:01:49;7.80;99.90
2729;DHT22;1372;47.956;7.830;2024-02-28T02:04:20;7.80;99.90
2729;DHT22;1372;47.956;7.830;2024-02-28T02:06:51;7.80;99.90
2729;DHT22;1372;47.956;7.830;2024-02-28T02:09:21;7.90;99.90
2729;DHT22;1372;47.956;7.830;2024-02-28T02:11:50;7.90;99.90
2729;DHT22;1372;47.956;7.830;2024-02-28T02:14:19;7.80;99.90
2729;DHT22;1372;47.956;7.830;2024-02-28T02:16:48;7.80;99.90
2729;DHT22;1372;47.956;7.830;2024-02-28T02:19:17;7.80;99.90
2729;DHT22;1372;47.956;7.830;2024-02-28T02:21:53;7.80;99.90
2729;DHT22;1372;47.956;7.830;2024-02-28T02:24:30;7.90;99.90
2729;DHT22;1372;47.956;7.830;2024-02-28T02:26:59;7.70;99.90
2729;DHT22;1372;47.956;7.830;2024-02-28T02:29:28;7.60;99.90
2729;DHT22;1372;47.956;7.830;2024-02-28T02:31:57;7.50;99.90
2729;DHT22;1372;47.956;7.830;2024-02-28T02:34:29;7.50;99.90
2729;DHT22;1372;47.956;7.830;2024-02-28T02:36:58;7.50;99.90
2729;DHT22;1372;47.956;7.830;2024-02-28T02:39:27;7.60;99.90
2729;DHT22;1372;47.956;7.830;2024-02-28T02:41:57;7.60;99.90
2729;DHT22;1372;47.956;7.830;2024-02-28T02:44:26;7.70;99.90
2729;DHT22;1372;47.956;7.830;2024-02-28T02:46:55;7.70;99.90
2729;DHT22;1372;47.956;7.830;2024-02-28T02:49:24;7.70;99.90
2729;DHT22;1372;47.956;7.830;2024-02-28T02:51:53;7.70;99.90
2729;DHT22;1372;47.956;7.830;2024-02-28T02:54:22;7.80;99.90
2729;DHT22;1372;47.956;7.830;2024-02-28T02:56:51;7.70;99.90
2729;DHT22;1372;47.956;7.830;2024-02-28T02:59:21;7.70;99.90
2729;DHT22;1372;47.956;7.830;2024-02-28T03:01:50;7.70;99.90
2729;DHT22;1372;47.956;7.830;2024-02-28T03:04:19;7.60;99.90
2729;DHT22;1372;47.956;7.830;2024-02-28T03:06:48;7.60;99.90
2729;DHT22;1372;47.956;7.830;2024-02-28T03:09:17;7.70;99.90
2729;DHT22;1372;47.956;7.830;2024-02-28T03:11:46;7.80;99.90
2729;DHT22;1372;47.956;7.830;2024-02-28T03:14:14;7.80;99.90
2729;DHT22;1372;47.956;7.830;2024-02-28T03:16:45;7.80;99.90
2729;DHT22;1372;47.956;7.830;2024-02-28T03:19:16;7.80;99.90
2729;DHT22;1372;47.956;7.830;2024-02-28T03:21:45;7.80;99.90
2729;DHT22;1372;47.956;7.830;2024-02-28T03:24:14;7.80;99.90
2729;DHT22;1372;47.956;7.830;2024-02-28T03:26:43;7.80;99.90
2729;DHT22;1372;47.956;7.830;2024-02-28T03:29:12;7.80;99.90
2729;DHT22;1372;47.956;7.830;2024-02-28T03:31:45;7.80;99.90
2729;DHT22;1372;47.956;7.830;2024-02-28T03:34:16;7.80;99.90
2729;DHT22;1372;47.956;7.830;2024-02-28T03:36:45;7.80;99.90
2729;DHT22;1372;47.956;7.830;2024-02-28T03:39:32;7.70;99.90
2729;DHT22;1372;47.956;7.830;2024-02-28T03:42:01;7.50;99.90
2729;DHT22;1372;47.956;7.830;2024-02-28T03:44:30;7.50;99.90
2729;DHT22;1372;47.956;7.830;2024-02-28T03:47:00;7.60;99.90
2729;DHT22;1372;47.956;7.830;2024-02-28T03:49:30;7.60;99.90
2729;DHT22;1372;47.956;7.830;2024-02-28T03:51:59;7.60;99.90
2729;DHT22;1372;47.956;7.830;2024-02-28T03:54:28;7.50;99.90
2729;DHT22;1372;47.956;7.830;2024-02-28T03:56:57;7.30;99.90
2729;DHT22;1372;47.956;7.830;2024-02-28T03:59:27;7.30;99.90
2729;DHT22;1372;47.956;7.830;2024-02-28T04:01:56;7.20;99.90
2729;DHT22;1372;47.956;7.830;2024-02-28T04:04:46;7.20;99.90
2729;DHT22;1372;47.956;7.830;2024-02-28T04:07:15;7.30;99.90
2729;DHT22;1372;47.956;7.830;2024-02-28T04:09:45;7.40;99.90
2729;DHT22;1372;47.956;7.830;2024-02-28T04:12:14;7.50;99.90
2729;DHT22;1372;47.956;7.830;2024-02-28T04:14:44;7.40;99.90
2729;DHT22;1372;47.956;7.830;2024-02-28T04:17:12;7.40;99.90
2729;DHT22;1372;47.956;7.830;2024-02-28T04:19:41;7.40;99.90
2729;DHT22;1372;47.956;7.830;2024-02-28T04:22:11;7.40;99.90
2729;DHT22;1372;47.956;7.830;2024-02-28T04:24:40;7.40;99.90
2729;DHT22;1372;47.956;7.830;2024-02-28T04:27:09;7.50;99.90
2729;DHT22;1372;47.956;7.830;2024-02-28T04:29:38;7.50;99.90
2729;DHT22;1372;47.956;7.830;2024-02-28T04:32:07;7.50;99.90
2729;DHT22;1372;47.956;7.830;2024-02-28T04:34:37;7.40;99.90
2729;DHT22;1372;47.956;7.830;2024-02-28T04:37:08;7.40;99.90
2729;DHT22;1372;47.956;7.830;2024-02-28T04:39:39;7.40;99.90
2729;DHT22;1372;47.956;7.830;2024-02-28T04:42:07;7.40;99.90
2729;DHT22;1372;47.956;7.830;2024-02-28T04:44:36;7.40;99.90
2729;DHT22;1372;47.956;7.830;2024-02-28T04:47:05;7.40;99.90
2729;DHT22;1372;47.956;7.830;2024-02-28T04:49:36;7.30;99.90
2729;DHT22;1372;47.956;7.830;2024-02-28T04:52:06;7.30;99.90
2729;DHT22;1372;47.956;7.830;2024-02-28T04:54:35;7.20;99.90
2729;DHT22;1372;47.956;7.830;2024-02-28T04:57:06;7.30;99.90
2729;DHT22;1372;47.956;7.830;2024-02-28T04:59:35;7.40;99.90
2729;DHT22;1372;47.956;7.830;2024-02-28T05:02:04;7.40;99.90
2729;DHT22;1372;47.956;7.830;2024-02-28T05:04:33;7.40;99.90
2729;DHT22;1372;47.956;7.830;2024-02-28T05:07:02;7.40;99.90
2729;DHT22;1372;47.956;7.830;2024-02-28T05:09:33;7.30;99.90
2729;DHT22;1372;47.956;7.830;2024-02-28T05:12:04;7.20;99.90
2729;DHT22;1372;47.956;7.830;2024-02-28T05:14:34;7.00;99.90
2729;DHT22;1372;47.956;7.830;2024-02-28T05:17:03;7.10;99.90
2729;DHT22;1372;47.956;7.830;2024-02-28T05:19:32;7.20;99.90
2729;DHT22;1372;47.956;7.830;2024-02-28T05:22:01;7.20;99.90
2729;DHT22;1372;47.956;7.830;2024-02-28T05:24:32;7.10;99.90
2729;DHT22;1372;47.956;7.830;2024-02-28T05:27:02;7.20;99.90
2729;DHT22;1372;47.956;7.830;2024-02-28T05:29:33;7.10;99.90
2729;DHT22;1372;47.956;7.830;2024-02-28T05:32:02;7.10;99.90
2729;DHT22;1372;47.956;7.830;2024-02-28T05:34:41;7.20;99.90
2729;DHT22;1372;47.956;7.830;2024-02-28T05:37:10;7.20;99.90
2729;DHT22;1372;47.956;7.830;2024-02-28T05:39:39;7.10;99.90
2729;DHT22;1372;47.956;7.830;2024-02-28T05:42:08;7.10;99.90
2729;DHT22;1372;47.956;7.830;2024-02-28T05:44:36;7.00;99.90
2729;DHT22;1372;47.956;7.830;2024-02-28T05:47:07;7.00;99.90
2729;DHT22;1372;47.956;7.830;2024-02-28T05:49:36;7.10;99.90
2729;DHT22;1372;47.956;7.830;2024-02-28T05:52:07;7.10;99.90
2729;DHT22;1372;47.956;7.830;2024-02-28T05:54:36;7.20;99.90
2729;DHT22;1372;47.956;7.830;2024-02-28T05:57:04;7.10;99.90
2729;DHT22;1372;47.956;7.830;2024-02-28T05:59:33;6.90;99.90
2729;DHT22;1372;47.956;7.830;2024-02-28T06:02:02;7.00;99.90
2729;DHT22;1372;47.956;7.830;2024-02-28T06:04:31;7.10;99.90
2729;DHT22;1372;47.956;7.830;2024-02-28T06:07:00;7.00;99.90
2729;DHT22;1372;47.956;7.830;2024-02-28T06:09:31;7.00;99.90
2729;DHT22;1372;47.956;7.830;2024-02-28T06:11:59;6.90;99.90
2729;DHT22;1372;47.956;7.830;2024-02-28T06:14:30;7.00;99.90
2729;DHT22;1372;47.956;7.830;2024-02-28T06:16:58;7.10;99.90
2729;DHT22;1372;47.956;7.830;2024-02-28T06:19:28;7.10;99.90
2729;DHT22;1372;47.956;7.830;2024-02-28T06:21:56;7.10;99.90
2729;DHT22;1372;47.956;7.830;2024-02-28T06:24:25;6.90;99.90
2729;DHT22;1372;47.956;7.830;2024-02-28T06:26:55;6.90;99.90
2729;DHT22;1372;47.956;7.830;2024-02-28T06:29:24;7.00;99.90
2729;DHT22;1372;47.956;7.830;2024-02-28T06:31:53;7.00;99.90
2729;DHT22;1372;47.956;7.830;2024-02-28T06:34:23;7.00;99.90
2729;DHT22;1372;47.956;7.830;2024-02-28T06:36:52;6.90;99.90
2729;DHT22;1372;47.956;7.830;2024-02-28T06:39:21;7.00;99.90
2729;DHT22;1372;47.956;7.830;2024-02-28T06:41:50;6.80;99.90
2729;DHT22;1372;47.956;7.830;2024-02-28T06:44:20;6.60;99.90
2729;DHT22;1372;47.956;7.830;2024-02-28T06:46:49;6.50;99.90
2729;DHT22;1372;47.956;7.830;2024-02-28T06:49:18;6.50;99.90
2729;DHT22;1372;47.956;7.830;2024-02-28T06:51:49;6.50;99.90
2729;DHT22;1372;47.956;7.830;2024-02-28T06:54:18;6.50;99.90
2729;DHT22;1372;47.956;7.830;2024-02-28T06:56:49;6.60;99.90
2729;DHT22;1372;47.956;7.830;2024-02-28T06:59:19;6.60;99.90
2729;DHT22;1372;47.956;7.830;2024-02-28T07:01:48;6.70;99.90
2729;DHT22;1372;47.956;7.830;2024-02-28T07:04:17;6.60;99.90
2729;DHT22;1372;47.956;7.830;2024-02-28T07:06:47;6.60;99.90
2729;DHT22;1372;47.956;7.830;2024-02-28T07:09:16;6.30;99.90
2729;DHT22;1372;47.956;7.830;2024-02-28T07:11:45;6.30;99.90
2729;DHT22;1372;47.956;7.830;2024-02-28T07:14:14;6.20;99.90
2729;DHT22;1372;47.956;7.830;2024-02-28T07:16:47;6.20;99.90
2729;DHT22;1372;47.956;7.830;2024-02-28T07:19:16;6.30;99.90
2729;DHT22;1372;47.956;7.830;2024-02-28T07:21:45;6.30;99.90
2729;DHT22;1372;47.956;7.830;2024-02-28T07:24:14;6.30;99.90
2729;DHT22;1372;47.956;7.830;2024-02-28T07:26:43;6.20;99.90
2729;DHT22;1372;47.956;7.830;2024-02-28T07:29:12;6.10;99.90
2729;DHT22;1372;47.956;7.830;2024-02-28T07:31:41;6.30;99.90
2729;DHT22;1372;47.956;7.830;2024-02-28T07:34:12;6.30;99.90
2729;DHT22;1372;47.956;7.830;2024-02-28T07:36:41;6.40;99.90
2729;DHT22;1372;47.956;7.830;2024-02-28T07:39:10;6.40;99.90
2729;DHT22;1372;47.956;7.830;2024-02-28T07:41:40;6.30;99.90
2729;DHT22;1372;47.956;7.830;2024-02-28T07:44:09;6.30;99.90
2729;DHT22;1372;47.956;7.830;2024-02-28T07:46:41;6.40;99.90
2729;DHT22;1372;47.956;7.830;2024-02-28T07:49:09;6.50;99.90
2729;DHT22;1372;47.956;7.830;2024-02-28T07:51:40;6.50;99.90
2729;DHT22;1372;47.956;7.830;2024-02-28T07:54:09;6.60;99.90
2729;DHT22;1372;47.956;7.830;2024-02-28T07:56:37;6.60;99.90
2729;DHT22;1372;47.956;7.830;2024-02-28T07:59:06;6.60;99.90
2729;DHT22;1372;47.956;7.830;2024-02-28T08:01:36;6.60;99.90
2729;DHT22;1372;47.956;7.830;2024-02-28T08:04:07;6.50;99.90
2729;DHT22;1372;47.956;7.830;2024-02-28T08:06:37;6.60;99.90
2729;DHT22;1372;47.956;7.830;2024-02-28T08:09:09;6.70;99.90
2729;DHT22;1372;47.956;7.830;2024-02-28T08:11:39;6.40;99.90
2729;DHT22;1372;47.956;7.830;2024-02-28T08:14:08;6.60;99.90
2729;DHT22;1372;47.956;7.830;2024-02-28T08:16:37;6.60;99.90
2729;DHT22;1372;47.956;7.830;2024-02-28T08:19:06;6.60;99.90
2729;DHT22;1372;47.956;7.830;2024-02-28T08:21:35;6.60;99.90
2729;DHT22;1372;47.956;7.830;2024-02-28T08:24:04;6.70;99.90
2729;DHT22;1372;47.956;7.830;2024-02-28T08:26:35;6.80;99.90
2729;DHT22;1372;47.956;7.830;2024-02-28T08:29:04;6.80;99.90
2729;DHT22;1372;47.956;7.830;2024-02-28T08:31:39;6.70;99.90
2729;DHT22;1372;47.956;7.830;2024-02-28T08:34:10;6.50;99.90
2729;DHT22;1372;47.956;7.830;2024-02-28T08:36:39;6.60;99.90
2729;DHT22;1372;47.956;7.830;2024-02-28T08:39:08;6.70;99.90
2729;DHT22;1372;47.956;7.830;2024-02-28T08:41:40;6.60;99.90
2729;DHT22;1372;47.956;7.830;2024-02-28T08:44:11;6.60;99.90
2729;DHT22;1372;47.956;7.830;2024-02-28T08:46:40;6.50;99.90
2729;DHT22;1372;47.956;7.830;2024-02-28T08:49:09;6.50;99.90
2729;DHT22;1372;47.956;7.830;2024-02-28T08:51:38;6.50;99.90
2729;DHT22;1372;47.956;7.830;2024-02-28T08:54:08;6.40;99.90
2729;DHT22;1372;47.956;7.830;2024-02-28T08:56:41;6.50;99.90
2729;DHT22;1372;47.956;7.830;2024-02-28T08:59:16;6.60;99.90
2729;DHT22;1372;47.956;7.830;2024-02-28T09:01:45;6.30;99.90
2729;DHT22;1372;47.956;7.830;2024-02-28T09:04:14;6.30;99.90
2729;DHT22;1372;47.956;7.830;2024-02-28T09:06:43;6.50;99.90
2729;DHT22;1372;47.956;7.830;2024-02-28T09:09:12;6.50;99.90
2729;DHT22;1372;47.956;7.830;2024-02-28T09:11:43;6.40;99.90
2729;DHT22;1372;47.956;7.830;2024-02-28T09:14:12;6.30;99.90
2729;DHT22;1372;47.956;7.830;2024-02-28T09:16:40;6.30;99.90
2729;DHT22;1372;47.956;7.830;2024-02-28T09:19:10;6.60;99.90
2729;DHT22;1372;47.956;7.830;2024-02-28T09:21:39;6.80;99.90
2729;DHT22;1372;47.956;7.830;2024-02-28T09:24:08;6.80;99.90
2729;DHT22;1372;47.956;7.830;2024-02-28T09:26:39;6.90;99.90
2729;DHT22;1372;47.956;7.830;2024-02-28T09:29:10;6.80;99.90
2729;DHT22;1372;47.956;7.830;2024-02-28T09:31:40;6.90;99.90
2729;DHT22;1372;47.956;7.830;2024-02-28T09:34:12;7.00;99.90
2729;DHT22;1372;47.956;7.830;2024-02-28T09:36:41;7.20;99.90
2729;DHT22;1372;47.956;7.830;2024-02-28T09:39:14;7.30;99.90
2729;DHT22;1372;47.956;7.830;2024-02-28T09:41:43;7.40;99.90
2729;DHT22;1372;47.956;7.830;2024-02-28T09:44:18;7.30;99.90
2729;DHT22;1372;47.956;7.830;2024-02-28T09:46:51;7.30;99.90
2729;DHT22;1372;47.956;7.830;2024-02-28T09:49:20;7.30;99.90
2729;DHT22;1372;47.956;7.830;2024-02-28T09:51:49;7.40;99.90
2729;DHT22;1372;47.956;7.830;2024-02-28T09:54:19;7.10;99.90
2729;DHT22;1372;47.956;7.830;2024-02-28T09:56:48;7.20;99.90
2729;DHT22;1372;47.956;7.830;2024-02-28T09:59:20;7.40;99.90
2729;DHT22;1372;47.956;7.830;2024-02-28T10:01:55;7.30;99.90
2729;DHT22;1372;47.956;7.830;2024-02-28T10:04:26;7.20;99.90
2729;DHT22;1372;47.956;7.830;2024-02-28T10:06:56;7.20;99.90
2729;DHT22;1372;47.956;7.830;2024-02-28T10:09:25;7.10;99.90
2729;DHT22;1372;47.956;7.830;2024-02-28T10:11:55;7.00;99.90
2729;DHT22;1372;47.956;7.830;2024-02-28T10:14:28;7.00;99.90
2729;DHT22;1372;47.956;7.830;2024-02-28T10:16:58;7.30;99.90
2729;DHT22;1372;47.956;7.830;2024-02-28T10:19:32;7.50;99.90
2729;DHT22;1372;47.956;7.830;2024-02-28T10:22:03;7.70;99.90
2729;DHT22;1372;47.956;7.830;2024-02-28T10:24:33;8.00;99.90
2729;DHT22;1372;47.956;7.830;2024-02-28T10:27:02;7.90;99.90
2729;DHT22;1372;47.956;7.830;2024-02-28T10:29:33;7.90;99.90
2729;DHT22;1372;47.956;7.830;2024-02-28T10:32:02;8.00;99.90
2729;DHT22;1372;47.956;7.830;2024-02-28T10:34:34;8.00;99.90
2729;DHT22;1372;47.956;7.830;2024-02-28T10:37:05;8.00;99.90
2729;DHT22;1372;47.956;7.830;2024-02-28T10:39:34;8.10;99.90
2729;DHT22;1372;47.956;7.830;2024-02-28T10:42:04;8.30;99.90
2729;DHT22;1372;47.956;7.830;2024-02-28T10:44:36;8.20;99.90
2729;DHT22;1372;47.956;7.830;2024-02-28T10:47:08;8.40;99.90
2729;DHT22;1372;47.956;7.830;2024-02-28T10:49:39;8.60;99.90
2729;DHT22;1372;47.956;7.830;2024-02-28T10:52:10;8.90;99.90
2729;DHT22;1372;47.956;7.830;2024-02-28T10:54:40;8.80;99.90
2729;DHT22;1372;47.956;7.830;2024-02-28T10:57:14;8.90;99.90
2729;DHT22;1372;47.956;7.830;2024-02-28T10:59:46;8.90;99.90
2729;DHT22;1372;47.956;7.830;2024-02-28T11:02:15;8.90;99.90
2729;DHT22;1372;47.956;7.830;2024-02-28T11:04:44;8.80;99.90
2729;DHT22;1372;47.956;7.830;2024-02-28T11:07:19;8.80;99.90
2729;DHT22;1372;47.956;7.830;2024-02-28T11:09:53;8.70;99.90
2729;DHT22;1372;47.956;7.830;2024-02-28T11:12:26;8.90;99.90
2729;DHT22;1372;47.956;7.830;2024-02-28T11:15:01;8.90;99.90
2729;DHT22;1372;47.956;7.830;2024-02-28T11:17:33;9.00;99.90
2729;DHT22;1372;47.956;7.830;2024-02-28T11:20:11;9.20;99.90
2729;DHT22;1372;47.956;7.830;2024-02-28T11:22:41;9.40;99.90
2729;DHT22;1372;47.956;7.830;2024-02-28T11:25:11;9.40;99.90
2729;DHT22;1372;47.956;7.830;2024-02-28T11:27:47;9.40;99.90
2729;DHT22;1372;47.956;7.830;2024-02-28T11:30:18;9.40;99.90
2729;DHT22;1372;47.956;7.830;2024-02-28T11:32:47;9.50;99.90
2729;DHT22;1372;47.956;7.830;2024-02-28T11:35:17;9.50;99.90
2729;DHT22;1372;47.956;7.830;2024-02-28T11:37:49;9.70;99.90
2729;DHT22;1372;47.956;7.830;2024-02-28T11:40:21;9.70;99.90
2729;DHT22;1372;47.956;7.830;2024-02-28T11:42:52;9.90;99.90
2729;DHT22;1372;47.956;7.830;2024-02-28T11:45:22;10.00;99.90
2729;DHT22;1372;47.956;7.830;2024-02-28T11:47:51;10.00;99.90
2729;DHT22;1372;47.956;7.830;2024-02-28T11:50:20;9.90;99.90
2729;DHT22;1372;47.956;7.830;2024-02-28T11:52:50;9.80;99.90
2729;DHT22;1372;47.956;7.830;2024-02-28T11:55:19;9.80;99.90
2729;DHT22;1372;47.956;7.830;2024-02-28T11:57:48;10.00;99.90
2729;DHT22;1372;47.956;7.830;2024-02-28T12:00:18;10.10;99.90
2729;DHT22;1372;47.956;7.830;2024-02-28T12:02:49;10.00;99.90
2729;DHT22;1372;47.956;7.830;2024-02-28T12:05:19;10.00;99.90
2729;DHT22;1372;47.956;7.830;2024-02-28T12:07:48;10.10;99.90
2729;DHT22;1372;47.956;7.830;2024-02-28T12:10:18;10.20;99.90
2729;DHT22;1372;47.956;7.830;2024-02-28T12:12:47;10.00;99.90
2729;DHT22;1372;47.956;7.830;2024-02-28T12:15:21;9.90;99.90
2729;DHT22;1372;47.956;7.830;2024-02-28T12:17:52;9.90;99.90
2729;DHT22;1372;47.956;7.830;2024-02-28T12:20:26;10.00;99.90
2729;DHT22;1372;47.956;7.830;2024-02-28T12:22:57;10.20;99.90
2729;DHT22;1372;47.956;7.830;2024-02-28T12:25:26;10.40;99.90
2729;DHT22;1372;47.956;7.830;2024-02-28T12:27:55;10.60;99.90
2729;DHT22;1372;47.956;7.830;2024-02-28T12:30:24;10.60;99.90
2729;DHT22;1372;47.956;7.830;2024-02-28T12:32:55;10.50;99.90
2729;DHT22;1372;47.956;7.830;2024-02-28T12:35:24;10.30;99.90
2729;DHT22;1372;47.956;7.830;2024-02-28T12:37:54;10.40;99.90
2729;DHT22;1372;47.956;7.830;2024-02-28T12:43:11;10.40;99.90
2729;DHT22;1372;47.956;7.830;2024-02-28T12:45:42;10.60;99.90
2729;DHT22;1372;47.956;7.830;2024-02-28T12:48:12;10.70;99.90
2729;DHT22;1372;47.956;7.830;2024-02-28T12:50:41;10.70;99.90
2729;DHT22;1372;47.956;7.830;2024-02-28T12:53:10;10.50;99.90
2729;DHT22;1372;47.956;7.830;2024-02-28T12:55:42;10.70;99.90
2729;DHT22;1372;47.956;7.830;2024-02-28T12:58:13;10.80;99.90
2729;DHT22;1372;47.956;7.830;2024-02-28T13:00:42;10.90;99.90
2729;DHT22;1372;47.956;7.830;2024-02-28T13:03:12;11.00;99.90
2729;DHT22;1372;47.956;7.830;2024-02-28T13:05:42;11.00;99.90
2729;DHT22;1372;47.956;7.830;2024-02-28T13:08:11;11.00;99.90
2729;DHT22;1372;47.956;7.830;2024-02-28T13:10:43;11.00;99.90
2729;DHT22;1372;47.956;7.830;2024-02-28T13:13:12;10.90;99.90
2729;DHT22;1372;47.956;7.830;2024-02-28T13:15:43;10.90;99.90
2729;DHT22;1372;47.956;7.830;2024-02-28T13:18:15;10.90;99.90
2729;DHT22;1372;47.956;7.830;2024-02-28T13:20:44;10.90;99.90
2729;DHT22;1372;47.956;7.830;2024-02-28T13:23:13;10.90;99.90
2729;DHT22;1372;47.956;7.830;2024-02-28T13:25:44;10.90;99.90
2729;DHT22;1372;47.956;7.830;2024-02-28T13:28:13;10.70;99.90
2729;DHT22;1372;47.956;7.830;2024-02-28T13:30:42;10.70;99.90
2729;DHT22;1372;47.956;7.830;2024-02-28T13:33:14;10.80;99.90
2729;DHT22;1372;47.956;7.830;2024-02-28T13:35:46;10.70;99.90
2729;DHT22;1372;47.956;7.830;2024-02-28T13:38:14;10.70;99.90
2729;DHT22;1372;47.956;7.830;2024-02-28T13:40:43;10.70;99.90
2729;DHT22;1372;47.956;7.830;2024-02-28T13:43:13;10.90;99.90
2729;DHT22;1372;47.956;7.830;2024-02-28T13:45:46;10.90;99.90
2729;DHT22;1372;47.956;7.830;2024-02-28T13:48:18;11.10;99.90
2729;DHT22;1372;47.956;7.830;2024-02-28T13:50:49;11.20;99.90
2729;DHT22;1372;47.956;7.830;2024-02-28T13:53:19;11.30;99.90
2729;DHT22;1372;47.956;7.830;2024-02-28T13:55:48;11.10;99.90
2729;DHT22;1372;47.956;7.830;2024-02-28T13:58:16;11.00;99.90
2729;DHT22;1372;47.956;7.830;2024-02-28T14:00:46;11.10;99.90
2729;DHT22;1372;47.956;7.830;2024-02-28T14:03:17;11.00;99.90
2729;DHT22;1372;47.956;7.830;2024-02-28T14:05:46;11.00;99.90
2729;DHT22;1372;47.956;7.830;2024-02-28T14:08:15;11.10;99.90
2729;DHT22;1372;47.956;7.830;2024-02-28T14:10:44;11.00;99.90
2729;DHT22;1372;47.956;7.830;2024-02-28T14:13:16;11.00;99.90
2729;DHT22;1372;47.956;7.830;2024-02-28T14:15:48;11.00;99.90
2729;DHT22;1372;47.956;7.830;2024-02-28T14:18:21;10.80;99.90
2729;DHT22;1372;47.956;7.830;2024-02-28T14:20:51;10.90;99.90
2729;DHT22;1372;47.956;7.830;2024-02-28T14:23:20;11.00;99.90
2729;DHT22;1372;47.956;7.830;2024-02-28T14:25:49;11.10;99.90
2729;DHT22;1372;47.956;7.830;2024-02-28T14:28:18;11.20;99.90
2729;DHT22;1372;47.956;7.830;2024-02-28T14:30:48;11.20;99.90
2729;DHT22;1372;47.956;7.830;2024-02-28T14:33:17;11.20;99.90
2729;DHT22;1372;47.956;7.830;2024-02-28T14:35:47;11.20;99.90
2729;DHT22;1372;47.956;7.830;2024-02-28T14:38:17;11.20;99.90
2729;DHT22;1372;47.956;7.830;2024-02-28T14:40:46;11.30;99.90
2729;DHT22;1372;47.956;7.830;2024-02-28T14:43:15;11.40;99.90
2729;DHT22;1372;47.956;7.830;2024-02-28T14:45:45;11.40;99.90
2729;DHT22;1372;47.956;7.830;2024-02-28T14:48:15;11.50;99.90
2729;DHT22;1372;47.956;7.830;2024-02-28T14:50:44;11.70;99.90
2729;DHT22;1372;47.956;7.830;2024-02-28T14:53:14;11.90;99.90
2729;DHT22;1372;47.956;7.830;2024-02-28T14:55:45;11.90;99.90
2729;DHT22;1372;47.956;7.830;2024-02-28T14:58:15;12.00;99.90
2729;DHT22;1372;47.956;7.830;2024-02-28T15:00:44;12.00;99.90
2729;DHT22;1372;47.956;7.830;2024-02-28T15:03:14;12.10;99.90
2729;DHT22;1372;47.956;7.830;2024-02-28T15:05:44;12.10;99.90
2729;DHT22;1372;47.956;7.830;2024-02-28T15:08:14;12.20;99.90
2729;DHT22;1372;47.956;7.830;2024-02-28T15:10:43;12.10;99.90
2729;DHT22;1372;47.956;7.830;2024-02-28T15:13:12;12.00;99.90
2729;DHT22;1372;47.956;7.830;2024-02-28T15:15:41;12.00;99.90
2729;DHT22;1372;47.956;7.830;2024-02-28T15:18:10;12.20;99.90
2729;DHT22;1372;47.956;7.830;2024-02-28T15:20:39;12.30;99.90
2729;DHT22;1372;47.956;7.830;2024-02-28T15:23:08;12.30;99.90
2729;DHT22;1372;47.956;7.830;2024-02-28T15:25:38;12.30;99.90
2729;DHT22;1372;47.956;7.830;2024-02-28T15:28:07;12.00;99.90
2729;DHT22;1372;47.956;7.830;2024-02-28T15:30:36;11.80;99.90
2729;DHT22;1372;47.956;7.830;2024-02-28T15:33:08;11.70;99.90
2729;DHT22;1372;47.956;7.830;2024-02-28T15:35:37;11.60;99.90
2729;DHT22;1372;47.956;7.830;2024-02-28T15:38:08;11.40;99.90
2729;DHT22;1372;47.956;7.830;2024-02-28T15:40:40;11.40;99.90
2729;DHT22;1372;47.956;7.830;2024-02-28T15:43:09;11.30;99.90
2729;DHT22;1372;47.956;7.830;2024-02-28T15:45:38;11.30;99.90
2729;DHT22;1372;47.956;7.830;2024-02-28T15:48:09;11.20;99.90
2729;DHT22;1372;47.956;7.830;2024-02-28T15:50:38;11.10;99.90
2729;DHT22;1372;47.956;7.830;2024-02-28T15:53:08;11.10;99.90
2729;DHT22;1372;47.956;7.830;2024-02-28T15:55:37;11.10;99.90
2729;DHT22;1372;47.956;7.830;2024-02-28T15:58:08;11.00;99.90
2729;DHT22;1372;47.956;7.830;2024-02-28T16:00:37;10.90;99.90
2729;DHT22;1372;47.956;7.830;2024-02-28T16:03:09;10.90;99.90
2729;DHT22;1372;47.956;7.830;2024-02-28T16:05:38;10.90;99.90
2729;DHT22;1372;47.956;7.830;2024-02-28T16:08:08;10.90;99.90
2729;DHT22;1372;47.956;7.830;2024-02-28T16:10:37;11.00;99.90
2729;DHT22;1372;47.956;7.830;2024-02-28T16:13:07;11.00;99.90
2729;DHT22;1372;47.956;7.830;2024-02-28T16:15:37;10.90;99.90
2729;DHT22;1372;47.956;7.830;2024-02-28T16:18:06;10.90;99.90
2729;DHT22;1372;47.956;7.830;2024-02-28T16:20:36;11.00;99.90
2729;DHT22;1372;47.956;7.830;2024-02-28T16:23:05;11.00;99.90
2729;DHT22;1372;47.956;7.830;2024-02-28T16:25:37;10.80;99.90
2729;DHT22;1372;47.956;7.830;2024-02-28T16:28:10;10.60;99.90
2729;DHT22;1372;47.956;7.830;2024-02-28T16:30:41;10.70;99.90
2729;DHT22;1372;47.956;7.830;2024-02-28T16:33:14;10.70;99.90